Time;durP1;ratioP1;P1;durP2;ratioP2;P2;SDS_P1;SDS_P2;PMS_P1;PMS_P2;Temp;Humidity;BMP_temperature;BMP_pressure;BME280_temperature;BME280_humidity;BME280_pressure;Samples;Min_cycle;Max_cycle;Signal;HPM_P1;HPM_P2
2022/03/26 16:51:34;;;;;;;79.63;30.30;;;20.40;99.90;;;;;;5046509;28;20437;-49
2022/03/26 16:54:00;;;;;;;59.95;25.27;;;20.60;99.90;;;;;;5047120;28;20445;-49
2022/03/26 16:56:26;;;;;;;77.80;28.67;;;20.60;99.90;;;;;;5041592;28;20436;-49
2022/03/26 16:58:52;;;;;;;60.13;27.63;;;20.70;99.90;;;;;;5045558;28;20021;-44
2022/03/26 17:01:18;;;;;;;74.28;25.73;;;21.00;99.90;;;;;;5044332;28;20514;-44
2022/03/26 17:04:56;;;;;;;75.10;26.42;;;21.10;99.90;;;;;;5096248;27;20418;-45
2022/03/26 17:31:31;;;;;;;48.70;23.63;;;20.80;99.90;;;;;;5056892;28;20971;-51
2022/03/26 17:33:57;;;;;;;49.05;22.98;;;20.70;99.90;;;;;;5067385;28;20059;-51
2022/03/26 17:36:23;;;;;;;55.80;25.38;;;20.70;99.90;;;;;;5067498;28;20052;-52
2022/03/26 17:38:49;;;;;;;62.53;26.33;;;20.70;99.90;;;;;;5067574;28;20025;-52
2022/03/26 17:41:15;;;;;;;58.28;24.88;;;20.80;99.90;;;;;;5067125;28;20107;-51
2022/03/26 17:43:42;;;;;;;59.83;25.63;;;20.90;99.90;;;;;;5067152;28;20354;-50
2022/03/26 17:46:09;;;;;;;56.10;24.83;;;20.90;99.90;;;;;;5066954;28;20506;-52
2022/03/26 17:48:39;;;;;;;54.90;25.27;;;21.00;99.90;;;;;;5066801;28;20511;-52
2022/03/26 17:51:05;;;;;;;48.80;24.48;;;21.00;99.90;;;;;;5052527;28;20477;-53
2022/03/26 17:53:31;;;;;;;58.65;24.38;;;21.10;99.90;;;;;;5046006;28;20021;-51
2022/03/26 17:55:57;;;;;;;55.28;25.63;;;21.10;99.90;;;;;;5046459;28;20033;-51
2022/03/26 17:58:23;;;;;;;49.97;24.20;;;21.10;99.90;;;;;;5046660;28;20033;-54
2022/03/26 18:00:49;;;;;;;55.90;23.80;;;21.10;99.90;;;;;;5047714;28;20022;-53
2022/03/26 18:03:16;;;;;;;52.30;22.52;;;21.10;99.90;;;;;;5046582;28;20025;-53
2022/03/26 18:05:42;;;;;;;51.17;24.65;;;21.10;99.90;;;;;;5047321;28;20109;-53
2022/03/26 18:08:08;;;;;;;55.80;24.10;;;21.10;99.90;;;;;;5046897;28;20056;-53
2022/03/26 18:10:33;;;;;;;46.30;22.90;;;21.10;99.90;;;;;;5047509;28;20045;-53
2022/03/26 18:13:00;;;;;;;48.75;22.67;;;21.10;99.90;;;;;;5047732;28;20097;-53
2022/03/26 18:15:26;;;;;;;47.10;21.23;;;21.10;99.90;;;;;;5047704;28;20538;-53
2022/03/26 18:17:53;;;;;;;59.17;22.48;;;21.10;99.90;;;;;;5047960;28;20108;-53
2022/03/26 18:20:19;;;;;;;46.95;23.33;;;21.10;99.90;;;;;;5047579;28;20024;-53
2022/03/26 18:22:45;;;;;;;45.08;23.73;;;21.10;99.90;;;;;;5047645;28;20030;-53
2022/03/26 18:25:11;;;;;;;45.25;21.55;;;21.00;99.90;;;;;;5047825;28;20025;-53
2022/03/26 18:27:37;;;;;;;49.47;20.77;;;21.00;99.90;;;;;;5046398;28;20135;-53
2022/03/26 18:30:03;;;;;;;41.92;22.02;;;21.00;99.90;;;;;;5047337;28;20053;-53
2022/03/26 18:32:29;;;;;;;51.35;22.02;;;21.00;99.90;;;;;;5047757;28;20028;-53
2022/03/26 18:34:55;;;;;;;53.90;23.73;;;21.00;99.90;;;;;;5047878;28;20032;-52
2022/03/26 18:37:21;;;;;;;48.42;22.23;;;21.00;99.90;;;;;;5046180;28;20052;-53
2022/03/26 18:39:47;;;;;;;38.28;21.25;;;21.00;99.90;;;;;;5047381;28;20110;-53
2022/03/26 18:42:16;;;;;;;40.97;20.00;;;21.00;99.90;;;;;;5037797;28;20029;-53
2022/03/26 18:44:42;;;;;;;41.67;22.20;;;20.90;99.90;;;;;;5032796;28;20473;-53
2022/03/26 18:47:07;;;;;;;44.17;21.67;;;21.00;99.90;;;;;;5034010;28;20112;-53
2022/03/26 18:49:34;;;;;;;39.60;20.88;;;21.00;99.90;;;;;;5033763;28;20483;-53
2022/03/26 18:52:00;;;;;;;41.83;21.20;;;21.00;99.90;;;;;;5033954;28;20510;-53
2022/03/26 18:54:26;;;;;;;41.85;20.15;;;20.90;99.90;;;;;;5034045;28;20022;-53
2022/03/26 18:56:52;;;;;;;44.80;20.83;;;20.90;99.90;;;;;;5033829;28;20095;-53
2022/03/26 18:59:18;;;;;;;41.03;20.73;;;20.90;99.90;;;;;;5033740;28;20512;-53
2022/03/26 19:01:44;;;;;;;41.47;20.33;;;20.90;99.90;;;;;;5033922;28;20030;-53
2022/03/26 19:04:10;;;;;;;44.17;20.77;;;20.90;99.90;;;;;;5033640;28;20436;-53
2022/03/26 19:06:36;;;;;;;34.88;19.27;;;20.90;99.90;;;;;;5033700;28;20030;-53
2022/03/26 19:09:02;;;;;;;41.15;20.67;;;20.90;99.90;;;;;;5033656;28;20049;-53
2022/03/26 19:11:28;;;;;;;32.55;19.60;;;20.90;99.90;;;;;;5032424;28;20034;-53
2022/03/26 19:13:54;;;;;;;37.47;19.58;;;20.90;99.90;;;;;;5033767;28;20067;-53
2022/03/26 19:16:20;;;;;;;42.17;19.30;;;20.90;99.90;;;;;;5033492;28;20432;-53
2022/03/26 19:18:47;;;;;;;43.50;19.92;;;20.90;99.90;;;;;;5033443;28;20025;-53
2022/03/26 19:21:23;;;;;;;37.33;19.27;;;20.90;99.90;;;;;;5032155;28;20074;-53
2022/03/26 19:23:49;;;;;;;32.92;17.75;;;20.90;99.90;;;;;;5033529;28;20853;-53
2022/03/26 19:26:15;;;;;;;36.13;19.30;;;20.90;99.90;;;;;;5033266;28;20025;-53
2022/03/26 19:31:25;;;;;;;35.65;18.83;;;20.80;99.90;;;;;;5033087;28;20060;-53
2022/03/26 19:33:51;;;;;;;34.67;18.75;;;20.80;99.90;;;;;;5033059;28;20022;-53
2022/03/26 19:36:17;;;;;;;39.25;18.60;;;20.80;99.90;;;;;;5033064;28;20095;-53
2022/03/26 19:38:43;;;;;;;31.25;18.23;;;20.80;99.90;;;;;;5033119;28;20565;-53
2022/03/26 19:41:10;;;;;;;34.78;17.70;;;20.80;99.90;;;;;;5032944;28;20496;-53
2022/03/26 19:43:38;;;;;;;36.38;17.55;;;20.80;99.90;;;;;;5031713;28;20025;-53
2022/03/26 19:46:05;;;;;;;33.33;17.40;;;20.80;99.90;;;;;;5032868;28;20034;-53
2022/03/26 19:48:31;;;;;;;32.13;17.48;;;20.80;99.90;;;;;;5032873;28;20036;-52
2022/03/26 19:50:57;;;;;;;33.83;18.13;;;20.80;99.90;;;;;;5032653;28;20036;-53
2022/03/26 19:53:23;;;;;;;32.05;17.27;;;20.80;99.90;;;;;;5031731;28;20101;-53
2022/03/26 19:55:49;;;;;;;32.53;17.73;;;20.70;99.90;;;;;;5032775;28;20057;-53
2022/03/26 19:58:15;;;;;;;33.35;17.35;;;20.70;99.90;;;;;;5032559;28;20029;-53
2022/03/26 20:00:42;;;;;;;34.28;16.83;;;20.70;99.90;;;;;;5032522;28;20027;-53
2022/03/26 20:03:09;;;;;;;29.75;17.05;;;20.70;99.90;;;;;;5032516;28;20113;-54
2022/03/26 20:05:35;;;;;;;33.10;17.45;;;20.70;99.90;;;;;;5032484;28;20104;-53
2022/03/26 20:08:02;;;;;;;33.88;17.48;;;20.70;99.90;;;;;;5032825;28;20100;-53
2022/03/26 20:10:28;;;;;;;30.60;16.48;;;20.70;99.90;;;;;;5032556;28;20493;-53
2022/03/26 20:12:54;;;;;;;29.08;16.90;;;20.70;99.90;;;;;;5032431;28;20053;-53
2022/03/26 20:15:20;;;;;;;29.13;16.50;;;20.70;99.90;;;;;;5032403;28;20512;-53
2022/03/26 20:20:30;;;;;;;27.83;16.40;;;20.70;99.90;;;;;;5032422;28;20032;-53
2022/03/26 20:22:56;;;;;;;29.83;15.50;;;20.70;99.90;;;;;;5032075;28;20026;-53
2022/03/26 20:25:22;;;;;;;35.15;16.48;;;20.60;99.90;;;;;;5032268;28;20436;-53
2022/03/26 20:27:48;;;;;;;27.05;15.20;;;20.60;99.90;;;;;;5032043;28;20018;-53
2022/03/26 20:30:13;;;;;;;27.77;15.05;;;20.60;99.90;;;;;;5030469;28;20046;-53
2022/03/26 20:32:39;;;;;;;31.27;16.52;;;20.60;99.90;;;;;;5031965;28;20025;-53
2022/03/26 20:35:06;;;;;;;31.08;16.20;;;20.50;99.90;;;;;;5031871;28;20057;-53
2022/03/26 20:37:32;;;;;;;29.20;15.20;;;20.50;99.90;;;;;;5032067;28;20022;-53
2022/03/26 20:39:58;;;;;;;28.73;15.85;;;20.50;99.90;;;;;;5031977;28;20461;-53
2022/03/26 20:42:25;;;;;;;26.17;15.60;;;20.50;99.90;;;;;;5030623;28;20030;-53
2022/03/26 20:44:51;;;;;;;27.90;14.40;;;20.50;99.90;;;;;;5031835;28;20017;-53
2022/03/26 20:47:19;;;;;;;27.55;16.13;;;20.50;99.90;;;;;;5031737;28;20492;-53
2022/03/26 20:49:46;;;;;;;26.17;15.48;;;20.50;99.90;;;;;;5031544;28;20032;-53
2022/03/26 20:52:12;;;;;;;28.30;15.93;;;20.50;99.90;;;;;;5031621;28;20029;-53
2022/03/26 20:54:37;;;;;;;22.98;14.18;;;20.50;99.90;;;;;;5031409;28;20032;-53
2022/03/26 20:57:03;;;;;;;24.40;14.95;;;20.50;99.90;;;;;;5031719;28;20025;-53
2022/03/26 20:59:29;;;;;;;25.70;14.90;;;20.50;99.90;;;;;;5031692;28;20084;-53
2022/03/26 21:01:55;;;;;;;28.83;14.85;;;20.50;99.90;;;;;;5031289;28;20057;-53
2022/03/26 21:04:21;;;;;;;26.45;15.25;;;20.50;99.90;;;;;;5031177;28;20040;-53
2022/03/26 21:06:47;;;;;;;25.15;14.07;;;20.50;99.90;;;;;;5031543;28;20026;-53
2022/03/26 21:09:12;;;;;;;23.45;13.90;;;20.50;99.90;;;;;;5031263;28;20093;-53
2022/03/26 21:11:39;;;;;;;28.63;15.82;;;20.50;99.90;;;;;;5031302;28;20481;-53
2022/03/26 21:14:05;;;;;;;26.65;15.25;;;20.50;99.90;;;;;;5031194;28;20096;-53
2022/03/26 21:16:31;;;;;;;24.27;14.45;;;20.50;99.90;;;;;;5031434;28;20021;-52
2022/03/26 21:19:00;;;;;;;25.15;14.43;;;20.50;99.90;;;;;;5029862;28;20533;-53
2022/03/26 21:21:26;;;;;;;24.92;15.32;;;20.50;99.90;;;;;;5031118;28;20087;-53
2022/03/26 21:23:53;;;;;;;23.05;15.35;;;20.50;99.90;;;;;;5031089;28;20047;-53
2022/03/26 21:26:18;;;;;;;29.63;14.23;;;20.50;99.90;;;;;;5029931;28;20032;-53
2022/03/26 21:28:44;;;;;;;26.20;15.75;;;20.50;99.90;;;;;;5031011;28;20436;-53
2022/03/26 21:31:10;;;;;;;24.80;14.88;;;20.50;99.90;;;;;;5030836;28;20049;-53
2022/03/26 21:33:36;;;;;;;23.02;14.48;;;20.50;99.90;;;;;;5031074;28;20392;-53
2022/03/26 21:36:02;;;;;;;25.08;14.30;;;20.50;99.90;;;;;;5031250;28;20026;-53
2022/03/26 21:38:28;;;;;;;25.25;13.88;;;20.50;99.90;;;;;;5031275;28;20032;-53
2022/03/26 21:40:55;;;;;;;23.52;14.90;;;20.50;99.90;;;;;;5031046;28;20034;-53
2022/03/26 21:43:22;;;;;;;23.15;14.00;;;20.50;99.90;;;;;;5030980;28;20017;-53
2022/03/26 21:45:49;;;;;;;28.50;15.45;;;20.50;99.90;;;;;;5030945;28;20040;-53
2022/03/26 21:48:16;;;;;;;22.27;14.13;;;20.40;99.90;;;;;;5030909;28;20037;-55
2022/03/26 21:50:43;;;;;;;27.00;14.27;;;20.50;99.90;;;;;;5029653;28;20428;-53
2022/03/26 21:53:10;;;;;;;23.10;14.27;;;20.50;99.90;;;;;;5029784;28;20025;-53
2022/03/26 21:55:37;;;;;;;28.33;16.40;;;20.50;99.90;;;;;;5031208;28;20120;-53
2022/03/26 21:58:03;;;;;;;25.67;15.07;;;20.40;99.90;;;;;;5031107;28;20026;-53
2022/03/26 22:00:29;;;;;;;23.73;14.13;;;20.40;99.90;;;;;;5031042;28;20358;-53
2022/03/26 22:02:55;;;;;;;21.40;13.70;;;20.40;99.90;;;;;;5030881;28;20112;-53
2022/03/26 22:05:21;;;;;;;21.55;13.20;;;20.40;99.90;;;;;;5029753;28;20025;-53
2022/03/26 22:07:48;;;;;;;24.65;14.93;;;20.50;99.90;;;;;;5030722;28;20556;-52
2022/03/26 22:10:14;;;;;;;20.77;13.00;;;20.40;99.90;;;;;;5030587;28;20129;-53
2022/03/26 22:12:42;;;;;;;22.05;13.48;;;20.40;99.90;;;;;;5029616;28;20021;-53
2022/03/26 22:15:09;;;;;;;24.95;14.40;;;20.40;99.90;;;;;;5030942;28;20033;-53
2022/03/26 22:17:34;;;;;;;20.23;12.77;;;20.40;99.90;;;;;;5033459;28;20029;-53
2022/03/26 22:20:03;;;;;;;25.42;13.45;;;20.40;99.90;;;;;;5034379;28;20026;-53
2022/03/26 22:22:29;;;;;;;19.30;13.57;;;20.40;99.90;;;;;;5034501;28;20034;-53
2022/03/26 22:24:55;;;;;;;20.40;12.60;;;20.40;99.90;;;;;;5034434;28;20104;-53
2022/03/26 22:27:21;;;;;;;24.15;13.52;;;20.40;99.90;;;;;;5034453;28;20108;-53
2022/03/26 22:29:48;;;;;;;24.00;14.30;;;20.40;99.90;;;;;;5032972;28;20124;-53
2022/03/26 22:32:14;;;;;;;24.85;14.15;;;20.40;99.90;;;;;;5034315;28;20083;-53
2022/03/26 22:34:42;;;;;;;23.48;13.45;;;20.40;99.90;;;;;;5032896;28;20025;-53
2022/03/26 22:37:09;;;;;;;21.27;13.65;;;20.40;99.90;;;;;;5034400;28;20082;-53
2022/03/26 22:39:35;;;;;;;21.13;14.45;;;20.40;99.90;;;;;;5033063;28;20144;-53
2022/03/26 22:42:01;;;;;;;21.45;14.30;;;20.40;99.90;;;;;;5033980;28;20502;-53
2022/03/26 22:44:27;;;;;;;25.05;14.23;;;20.40;99.90;;;;;;5034086;28;20029;-53
2022/03/26 22:46:53;;;;;;;22.10;14.20;;;20.40;99.90;;;;;;5033994;28;20025;-54
2022/03/26 22:49:18;;;;;;;21.60;14.45;;;20.40;99.90;;;;;;5034036;28;20036;-53
2022/03/26 22:51:44;;;;;;;23.92;14.52;;;20.40;99.90;;;;;;5033906;28;20029;-53
2022/03/26 22:54:13;;;;;;;25.95;14.93;;;20.40;99.90;;;;;;5033797;28;20099;-53
2022/03/26 22:56:39;;;;;;;25.98;14.57;;;20.40;99.90;;;;;;5033998;28;20056;-53
2022/03/26 22:59:05;;;;;;;23.25;15.25;;;20.40;99.90;;;;;;5034194;28;20091;-53
2022/03/26 23:02:09;;;;;;;21.63;14.52;;;20.40;99.90;;;;;;5033855;28;20021;-53
2022/03/26 23:04:35;;;;;;;22.40;14.52;;;20.40;99.90;;;;;;5011720;28;20040;-53
2022/03/26 23:07:01;;;;;;;21.83;14.40;;;20.40;99.90;;;;;;5011474;28;20030;-53
2022/03/26 23:09:27;;;;;;;23.13;14.90;;;20.40;99.90;;;;;;5011005;28;20128;-53
2022/03/26 23:11:53;;;;;;;25.10;14.60;;;20.40;99.90;;;;;;5033640;28;20057;-53
2022/03/26 23:14:20;;;;;;;21.88;13.95;;;20.30;99.90;;;;;;5033966;28;20029;-53
2022/03/26 23:16:46;;;;;;;27.25;15.30;;;20.30;99.90;;;;;;5033694;28;20497;-53
2022/03/26 23:19:12;;;;;;;25.40;15.10;;;20.40;99.90;;;;;;5033418;28;20025;-53
2022/03/26 23:21:38;;;;;;;22.90;14.93;;;20.40;99.90;;;;;;5033643;28;20029;-53
2022/03/26 23:24:05;;;;;;;24.60;15.85;;;20.30;99.90;;;;;;5033367;28;20393;-53
2022/03/26 23:26:31;;;;;;;22.35;14.70;;;20.30;99.90;;;;;;5033502;28;20024;-53
2022/03/26 23:28:57;;;;;;;25.58;15.13;;;20.30;99.90;;;;;;5033118;28;20037;-53
2022/03/26 23:31:23;;;;;;;24.63;15.18;;;20.30;99.90;;;;;;5032904;28;20064;-53
2022/03/26 23:33:49;;;;;;;25.33;15.27;;;20.40;99.90;;;;;;5033098;28;20022;-52
2022/03/26 23:36:15;;;;;;;23.73;15.75;;;20.30;99.90;;;;;;5033047;28;20037;-53
2022/03/26 23:38:41;;;;;;;25.52;16.17;;;20.30;99.90;;;;;;5033235;28;20092;-52
2022/03/26 23:41:07;;;;;;;27.90;16.98;;;20.40;99.90;;;;;;5031901;28;20025;-52
2022/03/26 23:43:34;;;;;;;29.90;18.05;;;20.30;99.90;;;;;;5032895;28;20048;-53
2022/03/26 23:46:00;;;;;;;26.50;15.60;;;20.30;99.90;;;;;;5032780;28;20108;-52
2022/03/26 23:48:26;;;;;;;26.40;16.08;;;20.30;99.90;;;;;;5032926;28;20029;-53
2022/03/26 23:50:53;;;;;;;26.73;16.20;;;20.30;99.90;;;;;;5032512;28;20041;-53
2022/03/26 23:53:19;;;;;;;24.58;16.40;;;20.30;99.90;;;;;;5032830;28;20025;-53
2022/03/26 23:55:45;;;;;;;24.83;15.65;;;20.40;99.90;;;;;;5032706;28;20051;-52
2022/03/26 23:58:11;;;;;;;26.42;17.08;;;20.40;99.90;;;;;;5032785;28;20569;-52
